Accueil
METAR-TAF:

METAR-TAF

Aéroports :

Guilin, Chine

Aéroport international de Guilin Liangjiang

latitude: 25-20N, longitude: 110-18E, altitude: 166 m

Observation

Le bulletin a été fait il y a 1 heure et 6 minutes, à 11:00 UTC
Vent 4 kt de nord/nord-ouest, variant entre ouest/sud-ouest et nord
Température 12°C
Humidité 76%
Pression 1015 hPa
Visibilité: 5000 m
Nuages fragmentés à une hauteur de 5300 ft
brume

METAR: ZGKL 221100Z 33002MPS 240V350 5000 BR BKN053 12/08 Q1015 NOSIG

Heure: 20:06 (12:06 UTC)

Prévision

Le bulletin a été fait il y a 2 heures et 59 minutes, à 09:07 UTC
Prévision valable du 22 à 12 UTC au 23 à 12 UTC
Vent 6 kt de nord-est
Visibilité: 4000 m
Nuages épars à une hauteur de 3000 ft
Ciel couvert à une hauteur de 5000 ft
brume sèche

TAF: ZGKL 220907Z 2212/2312 05003MPS 4000 HZ SCT030 OVC050 TX14/2307Z TN08/2222Z

Observations et prévisions météorologiques de plus de 4000 aéroports (messages METAR et TAF).

Les stations disponibles sont représentées par des disques jaunes et rouges sur la carte.

Passer la souris dessus pour voir le nom de la station.

Cliquer dessus pour voir les observations et prévisions météorologiques.

Pour changer de carte: cliquez sur les boutons verts avec une croix noire pour zoomer, sur le bouton vert avec un tiret pour effectuer un zoom arrière, ou sur les flèches vertes pour les cartes adjacentes.


METAR-TAF: